Weather observations for the past three days for
Algona
Metric (Imperial)
Date Time (cdt) Wind (kph) Vis. (km) Weather Sky Cond. Temperature (ºC) Relative Humidity Wind Chill (°C) Heat Index (°C) Pressure Precipitation (cm)
Air Dwpt 6 hour altimeter (cm) sea level (mb) 1 hr 3 hr 6 hr
Max. Min.
08 20:15 N 17 16.09 A Few Clouds FEW110 21 -1 23% 75.21 0.0
08 19:35 NW 28 16.09 Fair CLR 23 -2 19% 75.21 0.0
08 19:15 NW 28 G 37 16.09 Fair CLR 24 -2 18% 24 75.18 0.0
08 18:55 NW 26 G 35 16.09 Fair CLR 23 -2 19% 75.18 0.0
08 18:35 NW 20 G 30 16.09 Fair CLR 23 -1 20% 75.21 0.0
08 18:15 NW 20 G 30 16.09 Fair CLR 24 0 21% 25 75.21 0.0
08 17:55 W 43 G 61 16.09 Fair and Windy CLR 23 -1 20% 75.23 0.0
08 17:15 W 26 G 39 16.09 Fair CLR 24 -1 19% 24 75.23 0.0
08 16:55 NW 22 G 33 16.09 Fair CLR 24 -2 18% 24 75.23 0.0
08 16:35 W 26 16.09 Fair CLR 23 -1 20% 75.26 0.0
08 16:15 W 24 G 39 16.09 Fair CLR 24 -2 18% 24 75.26 0.0
08 15:55 W 26 G 39 16.09 Fair CLR 23 -2 19% 75.29 0.0
08 15:35 W 35 G 48 16.09 Fair and Breezy CLR 25 -2 17% 25 75.31 0.0
08 15:15 W 30 G 46 16.09 Fair CLR 24 -2 18% 24 75.34 0.0
08 14:55 W 28 G 39 16.09 Fair CLR 24 -2 18% 24 75.36 0.0
08 14:35 W 31 G 48 16.09 Fair CLR 24 -2 18% 24 75.39 0.0
08 14:15 W 24 G 41 16.09 Fair CLR 23 -3 17% 75.41 0.0
08 13:55 NW 26 G 39 16.09 Fair CLR 23 -3 17% 75.41 0.0
08 13:35 W 17 G 39 16.09 Fair CLR 22 -3 19% 75.44 0.0
08 13:15 NW 15 G 28 16.09 Fair CLR 22 -4 17% 75.46 0.0
08 12:55 W 35 16.09 Fair and Breezy CLR 22 -3 19% 75.49 0.0
08 12:35 W 22 G 39 14.48 Fair CLR 22 -3 19% 75.51 0.0
08 12:15 Vrbl 11 G 28 16.09 Fair CLR 21 -4 18% 75.54 0.0
08 11:55 NW 28 14.48 Fair CLR 21 -4 18% 75.57 0.0
08 11:35 W 20 G 35 16.09 Fair CLR 21 -4 18% 75.59 0.0
08 11:15 W 17 14.48 Fair CLR 20 -5 18% 75.59 0.0
08 10:55 W 19 G 30 14.48 Fair CLR 19 -4 21% 75.62 0.0
08 10:35 W 22 16.09 Fair CLR 19 -3 22% 75.62 0.0
08 10:15 SW 19 G 31 16.09 Fair CLR 18 -3 24% 75.64 0.0
08 09:55 SW 15 G 28 14.48 Fair CLR 17 -2 27% 75.64 0.0
08 09:35 SW 19 G 28 14.48 Fair CLR 16 -1 31% 75.67 0.0
08 09:15 SW 22 14.48 Fair CLR 15 -2 31% 75.67 0.0
08 08:55 SW 20 14.48 Fair CLR 13 -2 36% 75.69 0.0
08 08:15 SW 11 14.48 Fair CLR 11 -2 41% 75.69 0.0
08 07:35 S 11 14.48 Fair CLR 9 -2 46% 8 75.69 0.0
08 07:15 S 13 16.09 Fair CLR 8 -2 50% 6 75.69 0.0
08 06:55 S 9 14.48 Fair CLR 6 -3 53% 4 75.69 0.0
08 06:35 S 9 14.48 Fair CLR 5 -4 53% 3 75.67 0.0
08 06:15 S 9 16.09 Fair CLR 6 -4 49% 4 75.67 0.0
08 05:55 S 11 16.09 Fair CLR 6 -3 53% 4 75.67 0.0
08 05:35 S 13 16.09 Fair CLR 6 -3 53% 4 75.67 0.0
08 05:15 S 11 16.09 Fair CLR 6 -3 53% 4 75.67 0.0
08 04:55 S 7 16.09 Fair CLR 6 -5 46% 5 75.67 0.0
08 04:35 S 9 16.09 Fair CLR 5 -3 57% 3 75.67 0.0
08 04:15 S 13 16.09 Fair CLR 5 -3 57% 2 75.67 0.0
08 03:55 SE 13 16.09 Fair CLR 5 -3 57% 2 75.69 0.0
08 03:35 SE 13 16.09 Fair CLR 6 -3 53% 4 75.69 0.0
08 03:15 SE 13 16.09 Fair CLR 5 -2 61% 2 75.69 0.0
08 02:35 SE 11 16.09 Fair CLR 6 -1 61% 4 75.72 0.0
08 02:15 SE 11 0.00 Fair CLR 7 -2 53% 5 75.74 0.0
08 01:55 SE 9 16.09 Fair CLR 7 -2 53% 5 75.74 0.0
08 01:35 E 7 16.09 Fair CLR 6 -4 49% 5 75.74 0.0
08 01:15 E 7 16.09 Fair CLR 8 -4 43% 7 75.74 0.0
08 00:55 E 9 16.09 Fair CLR 8 -4 43% 7 75.74 0.0
08 00:35 E 7 16.09 Fair CLR 8 -4 43% 7 75.74 0.0
08 00:15 NE 7 16.09 Fair CLR 6 -4 49% 5 75.74 0.0
07 23:55 E 6 16.09 Fair CLR 8 -2 50% 75.74 0.0
07 23:35 Vrbl 6 14.48 Fair CLR 7 -3 49% 75.74 0.0
07 23:15 Vrbl 7 16.09 Fair CLR 10 -4 37% 9 75.74 0.0
07 22:55 SE 6 16.09 Fair CLR 11 -4 35% 75.74 0.0
07 22:35 Calm 16.09 Fair CLR 11 -4 35% 75.74 0.0
07 21:55 Calm 16.09 Fair CLR 11 -5 32% 75.74 0.0
07 21:35 Calm 16.09 Fair CLR 12 -4 33% 75.74 0.0
07 21:15 Calm 16.09 Fair CLR 12 -5 30% 75.72 0.0
07 20:55 W 6 16.09 Fair CLR 13 -5 28% 75.72 0.0
07 20:35 Calm 16.09 Fair CLR 15 -6 23% 75.69 0.0
07 20:15 Calm 16.09 Fair CLR 16 -6 22% 75.69 0.0
07 19:55 NW 9 16.09 Fair CLR 17 -6 20% 75.69 0.0
07 19:35 NW 11 16.09 Fair CLR 17 -5 22% 75.69 0.0
07 19:15 NW 17 14.48 Fair CLR 17 -5 22% 75.69 0.0
07 18:55 NW 19 16.09 Fair CLR 17 -5 22% 75.69 0.0
07 18:35 NW 13 G 26 16.09 Fair CLR 17 -5 22% 75.69 0.0
07 18:15 NW 17 G 26 16.09 Fair CLR 17 -5 22% 75.69 0.0
07 17:55 Vrbl 11 G 28 16.09 Fair CLR 17 -5 22% 75.69 0.0
07 17:35 NW 19 G 31 16.09 Fair CLR 17 -5 22% 75.69 0.0
07 17:15 NW 15 16.09 A Few Clouds FEW095 17 -6 20% 75.69 0.0
07 16:55 W 20 16.09 Fair CLR 18 -4 22% 75.72 0.0
07 16:35 W 15 G 26 14.48 Fair CLR 18 -4 22% 75.72 0.0
07 16:15 W 19 G 28 16.09 Fair CLR 17 -5 22% 75.72 0.0
07 15:55 W 15 G 30 16.09 Fair CLR 17 -5 22% 75.74 0.0
07 15:35 W 19 16.09 Fair CLR 17 -4 24% 75.74 0.0
07 15:15 W 13 G 22 14.48 Fair CLR 17 -4 24% 75.77 0.0
07 14:35 Calm 16.09 Fair CLR 16 -5 23% 75.77 0.0
07 14:15 NW 20 14.48 Fair CLR 16 -5 23% 75.79 0.0
07 13:55 Vrbl 9 G 30 14.48 Fair CLR 16 -5 23% 75.79 0.0
07 13:35 N 19 G 30 16.09 Fair CLR 15 -4 27% 75.79 0.0
07 13:15 Vrbl 11 G 28 12.87 Fair CLR 15 -3 29% 75.79 0.0
07 12:55 NE 19 16.09 Fair CLR 15 -2 31% 75.79 0.0
07 12:15 Vrbl 9 16.09 Fair CLR 14 -2 33% 75.84 0.0
07 11:55 NE 13 G 22 14.48 Fair CLR 14 -2 33% 75.87 0.0
07 11:35 Vrbl 7 G 20 16.09 Fair CLR 13 -3 33% 75.87 0.0
07 10:55 NE 11 G 26 16.09 Fair CLR 13 -2 36% 75.87 0.0
07 10:35 NE 17 16.09 Fair CLR 12 -1 41% 75.84 0.0
07 10:15 NE 15 G 28 16.09 Fair CLR 11 -2 41% 75.87 0.0
07 09:55 NE 19 16.09 Fair CLR 11 -1 44% 75.87 0.0
07 09:35 NE 19 16.09 Fair CLR 10 -2 43% 8 75.87 0.0
07 09:15 NE 19 16.09 Fair CLR 9 -2 46% 7 75.84 0.0
07 08:55 E 19 16.09 Fair CLR 9 -3 43% 7 75.87 0.0
07 08:35 E 15 16.09 Fair CLR 8 -3 46% 6 75.87 0.0
07 08:15 NE 17 16.09 Fair CLR 7 -2 53% 4 75.87 0.0
07 07:55 E 13 14.48 Fair CLR 6 -2 57% 4 75.87 0.0
07 07:35 NE 11 16.09 Fair CLR 4 -2 65% 2 75.87 0.0
07 07:15 N 15 14.48 Fair CLR 3 -3 65% -0 75.9 0.0
07 06:55 N 20 G 31 16.09 A Few Clouds FEW085 3 -3 65% -1 75.87 0.0
07 06:35 SE 6 16.09 Mostly Cloudy BKN095 3 -3 65% 75.79 0.0
07 05:55 SE 7 16.09 Fair CLR 2 -3 70% 0 75.79 0.0
07 05:35 E 13 16.09 A Few Clouds FEW050 FEW055 2 -3 70% -1 75.79 0.0
07 05:15 SE 11 16.09 Mostly Cloudy FEW049 SCT060 BKN070 3 -3 65% 0 75.82 0.0
07 04:55 Calm 16.09 Mostly Cloudy FEW070 BKN090 3 -3 65% 75.87 0.0
07 04:35 Calm 16.09 Mostly Cloudy BKN095 3 -3 65% 75.87 0.0
07 04:15 SE 9 16.09 Overcast BKN100 OVC120 3 -3 65% 1 75.9 0.0
07 03:55 NE 9 16.09 Mostly Cloudy BKN120 3 -3 65% 1 75.9 0.0
07 03:35 NE 11 16.09 Partly Cloudy SCT090 SCT120 3 -3 65% 0 75.92 0.0
07 03:15 NE 11 16.09 Overcast FEW070 BKN090 OVC120 4 -3 61% 2 75.95 0.0
07 02:55 N 11 16.09 Overcast SCT070 BKN090 OVC120 5 -3 57% 3 75.95 0.0
07 02:35 SE 13 16.09 Overcast FEW070 BKN095 OVC120 5 -3 57% 2 75.95 0.0
07 02:15 SE 13 16.09 Overcast OVC110 6 -4 49% 4 75.97 0.0
07 01:55 SE 13 16.09 Overcast OVC110 6 -4 49% 4 76 0.0
07 01:35 SE 13 16.09 Overcast OVC110 5 -4 53% 2 76 0.0
07 01:15 SE 15 16.09 Mostly Cloudy BKN110 5 -3 57% 2 76 0.0
07 00:55 SE 15 16.09 Overcast OVC100 4 -3 61% 1 76.02 0.0
07 00:35 SE 11 16.09 Overcast OVC100 5 -4 53% 3 76.05 0.0
07 00:15 SE 11 16.09 Mostly Cloudy BKN100 5 -4 53% 3 76.05 0.0
06 23:35 E 9 16.09 Fair CLR 5 -5 49% 3 76.07 0.0
06 23:15 E 11 16.09 Fair CLR 5 -4 53% 3 76.07 0.0
06 22:55 E 9 16.09 Fair CLR 5 -4 53% 3 76.07 0.0
06 22:35 E 9 16.09 A Few Clouds FEW070 6 -4 49% 4 76.1 0.0
06 22:15 E 9 16.09 Partly Cloudy SCT075 SCT085 6 -4 49% 4 76.1 0.0
06 21:55 NE 7 16.09 Mostly Cloudy FEW070 BKN090 7 -4 46% 6 76.1 0.0
06 21:35 E 9 16.09 Overcast SCT070 BKN080 OVC090 7 -5 43% 5 76.1 0.0
06 20:55 N 9 16.09 Mostly Cloudy FEW075 BKN085 7 -6 39% 5 76.1 0.0
06 20:35 N 7 0.00 Mostly Cloudy SCT070 BKN090 10 -6 32% 9 76.07 0.0
06 20:15 Calm 16.09 Mostly Cloudy FEW065 BKN090 10 -6 32% 76.07 0.0
06 19:55 NW 9 14.48 Mostly Cloudy BKN085 11 -6 30% 76.1 0.0
06 19:35 NW 15 16.09 Partly Cloudy SCT090 11 -5 32% 76.1 0.0
06 19:15 W 22 16.09 Partly Cloudy FEW075 SCT085 11 -5 32% 76.1 0.0
06 18:55 NW 20 G 35 16.09 Partly Cloudy FEW075 SCT090 12 -5 30% 76.12 0.0
06 18:35 NW 26 16.09 Partly Cloudy FEW070 SCT090 11 -5 32% 76.12 0.0
06 18:15 W 22 16.09 Partly Cloudy FEW070 SCT085 11 -5 32% 76.12 0.0
06 17:55 NW 26 16.09 A Few Clouds FEW070 12 -6 28% 76.15 0.0
06 17:35 NW 22 16.09 A Few Clouds FEW070 11 -6 30% 76.15 0.0
06 17:15 NW 28 G 37 16.09 Partly Cloudy SCT070 11 -6 30% 76.15 0.0
06 16:55 W 24 G 39 16.09 A Few Clouds FEW070 12 -5 30% 76.15 0.0
06 16:35 NW 24 G 35 16.09 Fair CLR 11 -6 30% 76.17 0.0
06 16:15 W 28 G 48 16.09 A Few Clouds FEW070 12 -5 30% 76.2 0.0
06 15:55 NW 19 G 43 16.09 A Few Clouds FEW065 11 -5 32% 76.2 0.0
06 15:35 NW 24 G 35 16.09 Partly Cloudy SCT065 11 -5 32% 76.23 0.0
06 15:15 NW 35 G 44 16.09 Partly Cloudy and Breezy SCT065 11 -5 32% 76.25 0.0
06 14:55 W 24 G 43 16.09 Partly Cloudy SCT060 11 -4 35% 76.25 0.0
06 14:35 W 20 G 44 16.09 Partly Cloudy SCT060 10 -5 35% 8 76.28 0.0
06 14:15 NW 26 G 41 16.09 Partly Cloudy SCT060 10 -5 35% 7 76.28 0.0
06 13:55 NW 26 16.09 Partly Cloudy SCT060 9 -6 34% 6 76.28 0.0
06 13:35 NW 26 G 37 14.48 Partly Cloudy SCT060 9 -5 37% 6 76.3 0.0
06 13:15 NW 24 G 35 16.09 Partly Cloudy SCT060 8 -6 37% 5 76.3 0.0
06 12:55 NW 22 G 39 16.09 Partly Cloudy SCT055 SCT065 8 -6 37% 5 76.3 0.0
06 12:35 NW 24 G 35 16.09 Partly Cloudy SCT060 8 -6 37% 5 76.33 0.0
06 12:15 NW 24 G 43 16.09 A Few Clouds FEW060 8 -6 37% 5 76.33 0.0
06 11:55 NW 22 G 39 16.09 Partly Cloudy SCT060 8 -6 37% 5 76.33 0.0
06 11:35 NW 24 G 41 16.09 A Few Clouds FEW060 FEW070 8 -6 37% 5 76.33 0.0
06 11:15 NW 20 G 39 16.09 Fair CLR 7 -5 43% 4 76.33 0.0
06 10:55 NW 24 G 35 16.09 Fair CLR 7 -5 43% 4 76.3 0.0
06 10:35 NW 26 16.09 A Few Clouds FEW050 7 -6 39% 3 76.3 0.0
06 10:15 NW 26 16.09 Partly Cloudy SCT049 7 -5 43% 3 76.33 0.0
06 09:55 W 20 G 33 16.09 Fair CLR 7 -4 46% 4 76.3 0.0
06 09:35 NW 19 16.09 A Few Clouds FEW070 7 -4 46% 4 76.3 0.0
06 09:15 NW 22 16.09 Partly Cloudy SCT070 6 -5 46% 2 76.3 0.0
06 08:55 NW 15 16.09 Partly Cloudy SCT070 6 -5 46% 3 76.28 0.0
06 08:35 NW 15 16.09 Fair CLR 5 -4 53% 2 76.28 0.0
06 08:15 NW 17 16.09 Partly Cloudy SCT065 5 -4 53% 2 76.28 0.0
06 07:55 NW 13 16.09 Overcast OVC065 5 -4 53% 2 76.28 0.0
06 07:35 NW 13 16.09 Overcast OVC065 4 -4 56% 1 76.25 0.0
06 07:15 NW 9 16.09 Overcast OVC065 4 -4 56% 2 76.23 0.0
06 06:55 NW 7 16.09 Overcast OVC065 3 -3 65% 1 76.2 0.0
06 06:35 NW 9 16.09 Overcast OVC065 2 -3 70% -0 76.2 0.0
06 06:15 NW 7 16.09 Overcast OVC065 2 -4 65% 0 76.17 0.0
06 05:55 NW 9 16.09 Overcast OVC065 1 -4 70% -2 76.17 0.0
06 05:35 NW 9 16.09 Mostly Cloudy BKN065 0 -5 69% -3 76.15 0.0
06 05:15 NW 7 16.09 A Few Clouds FEW065 1 -5 65% -1 76.12 0.0
06 04:55 NW 9 16.09 Fair CLR 1 -5 65% -2 76.12 0.0
06 04:35 N 7 16.09 Mostly Cloudy FEW060 BKN075 1 -5 65% -1 76.12 0.0
06 04:15 NW 9 16.09 Overcast OVC075 2 -5 60% -0 76.12 0.0
06 03:55 NW 11 16.09 Partly Cloudy SCT075 2 -5 60% -1 76.12 0.0
06 03:35 NW 9 16.09 Fair CLR 2 -5 60% -0 76.12 0.0
06 03:15 NW 9 16.09 Fair CLR 2 -5 60% -0 76.1 0.0
06 02:55 NW 9 16.09 Fair CLR 3 -5 56% 1 76.1 0.0
06 02:35 NW 11 16.09 Fair CLR 3 -5 56% 0 76.07 0.0
06 02:15 NW 9 0.00 Fair CLR 4 -5 52% 2 76.07 0.0
06 01:55 NW 11 16.09 Fair CLR 3 -5 56% 0 76.1 0.0
06 01:35 NW 11 16.09 Fair CLR 3 -5 56% 0 76.1 0.0
06 01:15 N 11 16.09 Fair CLR 4 -5 52% 2 76.07 0.0
06 00:55 N 13 16.09 Fair CLR 4 -5 52% 1 76.07 0.0
06 00:35 N 13 16.09 Fair CLR 4 -5 52% 1 76.05 0.0
06 00:15 N 11 16.09 Fair CLR 5 -5 49% 3 76.05 0.0
05 23:55 N 15 16.09 Fair CLR 6 -5 46% 3 76.02 0.0
05 23:35 N 15 16.09 Fair CLR 6 -5 46% 3 76.02 0.0
05 23:15 N 15 16.09 Partly Cloudy SCT075 6 -5 46% 3 76 0.0
05 22:55 N 13 16.09 Mostly Cloudy SCT065 BKN075 6 -6 42% 4 76 0.0
05 22:35 NW 11 16.09 Mostly Cloudy BKN075 6 -6 42% 4 76.02 0.0
05 22:15 NW 9 16.09 Partly Cloudy SCT075 6 -6 42% 4 76 0.0
05 21:55 N 11 16.09 A Few Clouds FEW080 7 -7 37% 5 76 0.0
05 21:35 NW 15 16.09 Mostly Cloudy BKN080 8 -7 34% 6 75.97 0.0
05 21:15 NW 15 16.09 Overcast OVC075 8 -6 37% 6 75.95 0.0
05 20:55 NW 19 16.09 Overcast OVC080 9 -6 34% 7 75.95 0.0
05 20:35 NW 26 16.09 Overcast OVC080 9 -6 34% 6 75.92 0.0
Date Time (cdt) Wind (kph) Vis. (km) Weather Sky Cond. Air Dwpt Max. Min. Relative Humidity Wind Chill (°C) Heat Index (°C) altimeter (cm) sea level (mb) 1 hr 3 hr 6 hr
6 hour
Temperature (ºC) Pressure Precipitation (cm)